Terminal Aerodrome Forecast
Issued by NWS Birmingham, AL

Current Version | Previous Version | Text Only | Print | Product List | Glossary On
Versions: 1 2 3 4 5 6 7 8 9 10 11 12 13
508
FTUS44 KBMX 270540
TAFBHM
TAF
KBHM 270540Z 2706/2806 14006KT P6SM SCT100 SCT250
     FM271500 11006KT P6SM OVC080 PROB30 2715/2717 4SM SHRA OVC040
     FM271700 08007KT 6SM SHRA BR BKN025 OVC050
     FM272100 11006KT P6SM VCSH BKN020 OVC040
     FM280300 12006KT 4SM BR BKN007=

USA.gov is the U.S. government's official web portal to all federal, state and local government web resources and services.